createdAt,value
2022-11-12T00:00:34.254Z,14.75
2022-11-12T00:03:20.630Z,15.00
2022-11-12T00:06:06.197Z,12.02
2022-11-12T00:08:53.708Z,11.63
2022-11-12T00:11:39.502Z,13.77
2022-11-12T00:14:25.851Z,13.82
2022-11-12T00:17:11.305Z,11.68
2022-11-12T00:19:56.919Z,13.23
2022-11-12T00:22:44.064Z,10.35
2022-11-12T00:25:30.285Z,10.77
2022-11-12T00:28:15.861Z,11.63
2022-11-12T00:31:07.833Z,12.75
2022-11-12T00:33:53.534Z,12.67
2022-11-12T00:36:39.185Z,9.95
2022-11-12T00:39:24.862Z,10.70
2022-11-12T00:42:10.519Z,9.52
2022-11-12T00:44:56.003Z,7.97
2022-11-12T00:47:41.601Z,11.10
2022-11-12T00:50:28.534Z,10.98
2022-11-12T00:53:14.250Z,10.65
2022-11-12T00:56:04.402Z,10.23
2022-11-12T00:58:50.399Z,11.48
2022-11-12T01:01:35.857Z,11.43
2022-11-12T01:04:21.798Z,10.23
2022-11-12T01:07:08.242Z,9.82
2022-11-12T01:09:54.721Z,9.38
2022-11-12T01:12:40.537Z,9.00
2022-11-12T01:15:25.807Z,11.45
2022-11-12T01:18:11.396Z,11.38
2022-11-12T01:21:01.820Z,11.60
2022-11-12T01:23:48.423Z,10.45
2022-11-12T01:26:36.501Z,9.70
2022-11-12T01:29:21.819Z,8.93
2022-11-12T01:32:08.695Z,11.95
2022-11-12T01:34:54.013Z,11.13
2022-11-12T01:37:39.705Z,11.38
2022-11-12T01:40:25.138Z,10.30
2022-11-12T01:43:14.700Z,8.63
2022-11-12T01:46:04.796Z,10.63
2022-11-12T01:49:02.956Z,8.63
2022-11-12T01:51:51.735Z,10.30
2022-11-12T01:54:38.594Z,9.07
2022-11-12T01:57:34.863Z,9.73
2022-11-12T02:00:21.050Z,10.88
2022-11-12T02:03:12.732Z,11.60
2022-11-12T02:06:03.052Z,10.23
2022-11-12T02:08:50.908Z,8.43
2022-11-12T02:11:36.851Z,11.90
2022-11-12T02:14:22.560Z,10.02
2022-11-12T02:17:09.579Z,9.93
2022-11-12T02:20:00.606Z,12.60
2022-11-12T02:22:46.011Z,11.27
2022-11-12T02:25:32.139Z,11.13
2022-11-12T02:28:18.214Z,12.35
2022-11-12T02:31:04.799Z,10.55
2022-11-12T02:33:50.443Z,12.18
2022-11-12T02:36:35.690Z,11.85
2022-11-12T02:39:21.353Z,10.48
2022-11-12T02:42:06.948Z,14.63
2022-11-12T02:44:52.941Z,11.75
2022-11-12T02:47:38.264Z,9.73
2022-11-12T02:50:24.515Z,10.45
2022-11-12T02:53:09.909Z,10.68
2022-11-12T02:55:55.461Z,12.25
2022-11-12T02:58:41.142Z,11.30
2022-11-12T03:01:27.105Z,11.98
2022-11-12T03:04:13.588Z,11.32
2022-11-12T03:06:59.269Z,9.50
2022-11-12T03:09:44.986Z,12.48
2022-11-12T03:12:31.964Z,11.25
2022-11-12T03:15:17.770Z,9.02
2022-11-12T03:18:03.473Z,10.07
2022-11-12T03:20:51.988Z,9.98
2022-11-12T03:23:38.240Z,11.05
2022-11-12T03:26:23.815Z,11.50
2022-11-12T03:29:11.427Z,11.55
2022-11-12T03:31:57.016Z,10.70
2022-11-12T03:34:43.591Z,13.90
2022-11-12T03:37:29.109Z,11.95
2022-11-12T03:40:14.886Z,10.45
2022-11-12T03:43:00.618Z,10.57
2022-11-12T03:45:46.242Z,12.52
2022-11-12T03:48:32.155Z,8.63
2022-11-12T03:51:19.030Z,10.52
2022-11-12T03:54:04.564Z,12.25
2022-11-12T03:56:50.056Z,10.20
2022-11-12T03:59:35.648Z,11.77
2022-11-12T04:02:21.280Z,10.23
2022-11-12T04:05:28.160Z,9.95
2022-11-12T04:08:38.328Z,8.98
2022-11-12T04:11:23.995Z,9.23
2022-11-12T04:14:09.184Z,10.55
2022-11-12T04:17:13.328Z,10.23
2022-11-12T04:20:17.183Z,9.27
2022-11-12T04:23:02.897Z,9.00
2022-11-12T04:26:06.954Z,8.20
2022-11-12T04:29:11.834Z,10.70
2022-11-12T04:31:57.487Z,13.48
2022-11-12T04:34:43.739Z,10.30
2022-11-12T04:37:44.360Z,13.13
2022-11-12T04:40:51.672Z,9.95
2022-11-12T04:43:55.887Z,9.82
2022-11-12T04:46:41.238Z,8.23
2022-11-12T04:49:26.916Z,11.60
2022-11-12T04:52:13.765Z,9.48
2022-11-12T04:55:01.470Z,9.45
2022-11-12T04:57:46.737Z,10.05
2022-11-12T05:00:32.901Z,9.20
2022-11-12T05:03:18.715Z,11.70
2022-11-12T05:06:28.761Z,10.10
2022-11-12T05:09:15.361Z,8.95
2022-11-12T05:12:00.987Z,10.25
2022-11-12T05:14:46.745Z,11.45
2022-11-12T05:17:33.249Z,8.68
2022-11-12T05:20:19.975Z,8.77
2022-11-12T05:23:07.352Z,12.40
2022-11-12T05:25:54.380Z,9.75
2022-11-12T05:28:40.050Z,9.85
2022-11-12T05:31:25.914Z,9.00
2022-11-12T05:34:12.231Z,11.15
2022-11-12T05:36:58.370Z,11.80
2022-11-12T05:39:45.413Z,9.05
2022-11-12T05:42:30.867Z,9.65
2022-11-12T05:45:16.681Z,9.98
2022-11-12T05:48:02.257Z,9.88
2022-11-12T05:53:59.969Z,9.98
2022-11-12T05:56:46.091Z,10.77
2022-11-12T05:59:31.632Z,13.30
2022-11-12T06:02:17.449Z,11.23
2022-11-12T06:05:03.168Z,11.80
2022-11-12T06:07:49.708Z,10.55
2022-11-12T06:10:35.641Z,15.68
2022-11-12T06:13:23.791Z,11.85
2022-11-12T06:16:09.351Z,10.27
2022-11-12T06:18:56.475Z,11.68
2022-11-12T06:21:42.291Z,10.70
2022-11-12T06:24:34.934Z,11.05
2022-11-12T06:27:20.807Z,11.02
2022-11-12T06:30:07.231Z,11.05
2022-11-12T06:32:52.825Z,9.80
2022-11-12T06:35:42.805Z,12.40
2022-11-12T06:38:35.155Z,11.70
2022-11-12T06:41:20.787Z,12.10
2022-11-12T06:44:06.604Z,12.00
2022-11-12T06:46:52.110Z,11.02
2022-11-12T06:49:38.759Z,12.50
2022-11-12T06:52:24.722Z,10.82
2022-11-12T06:55:09.932Z,11.35
2022-11-12T06:57:56.823Z,12.75
2022-11-12T07:00:42.470Z,11.38
2022-11-12T07:03:28.093Z,12.65
2022-11-12T07:06:19.390Z,13.73
2022-11-12T07:09:05.444Z,13.13
2022-11-12T07:11:50.812Z,11.40
2022-11-12T07:14:36.627Z,15.15
2022-11-12T07:17:22.900Z,13.00
2022-11-12T07:20:09.447Z,13.30
2022-11-12T07:22:54.575Z,13.52
2022-11-12T07:25:40.247Z,13.48
2022-11-12T07:28:26.904Z,12.88
2022-11-12T07:31:16.181Z,12.18
2022-11-12T07:34:01.717Z,12.90
2022-11-12T07:36:48.660Z,13.57
2022-11-12T07:39:34.561Z,22.10
2022-11-12T07:42:21.224Z,11.95
2022-11-12T07:45:07.347Z,12.15
2022-11-12T07:47:53.041Z,16.13
2022-11-12T07:50:39.382Z,11.48
2022-11-12T07:53:26.329Z,11.60
2022-11-12T07:56:15.680Z,16.85
2022-11-12T07:59:02.707Z,12.88
2022-11-12T08:01:48.177Z,13.70
2022-11-12T08:04:33.684Z,14.65
2022-11-12T08:07:22.621Z,18.75
2022-11-12T08:10:08.737Z,14.38
2022-11-12T08:12:56.626Z,13.85
2022-11-12T08:15:49.450Z,14.88
2022-11-12T08:18:38.924Z,15.07
2022-11-12T08:21:27.149Z,17.45
2022-11-12T08:24:16.623Z,14.48
2022-11-12T08:27:03.481Z,15.63
2022-11-12T08:29:48.890Z,15.30
2022-11-12T08:32:34.827Z,18.77
2022-11-12T08:35:21.455Z,16.20
2022-11-12T08:38:09.365Z,16.48
2022-11-12T08:40:54.637Z,16.25
2022-11-12T08:43:43.318Z,14.98
2022-11-12T08:46:29.034Z,18.75
2022-11-12T08:49:15.770Z,14.07
2022-11-12T08:52:03.517Z,18.73
2022-11-12T08:54:49.833Z,14.77
2022-11-12T08:57:45.244Z,12.20
2022-11-12T09:00:37.210Z,19.48
2022-11-12T09:03:26.155Z,10.00
2022-11-12T09:06:13.885Z,8.60
2022-11-12T09:08:59.359Z,8.27
2022-11-12T09:11:45.218Z,4.78
2022-11-12T09:14:30.601Z,8.05
2022-11-12T09:17:17.539Z,7.78
2022-11-12T09:20:03.004Z,5.15
2022-11-12T09:22:49.963Z,6.07
2022-11-12T09:25:36.525Z,5.93
2022-11-12T09:28:23.280Z,6.60
2022-11-12T09:31:09.067Z,8.65
2022-11-12T09:33:54.839Z,7.13
2022-11-12T09:36:40.592Z,5.80
2022-11-12T09:39:27.425Z,4.85
2022-11-12T09:42:22.402Z,5.18
2022-11-12T09:45:27.080Z,7.40
2022-11-12T09:48:24.382Z,7.13
2022-11-12T09:51:32.047Z,4.95
2022-11-12T09:54:28.296Z,6.47
2022-11-12T09:57:17.091Z,7.40
2022-11-12T10:00:03.487Z,6.20
2022-11-12T10:02:55.492Z,7.05
2022-11-12T10:05:52.962Z,7.07
2022-11-12T10:08:40.630Z,5.57
2022-11-12T10:12:09.033Z,6.47
2022-11-12T10:15:50.142Z,6.95
2022-11-12T10:18:58.403Z,7.20
2022-11-12T10:21:52.966Z,11.13
2022-11-12T10:24:40.169Z,8.45
2022-11-12T10:27:36.704Z,9.25
2022-11-12T10:30:25.185Z,8.27
2022-11-12T10:33:17.000Z,7.43
2022-11-12T10:36:31.289Z,7.82
2022-11-12T10:40:06.947Z,8.32
2022-11-12T10:43:03.046Z,8.32
2022-11-12T10:45:53.286Z,8.05
2022-11-12T10:48:39.828Z,6.55
2022-11-12T10:51:29.118Z,9.05
2022-11-12T10:54:36.895Z,5.35
2022-11-12T10:57:27.276Z,7.93
2022-11-12T11:00:13.244Z,6.20
2022-11-12T11:03:01.079Z,6.65
2022-11-12T11:06:04.211Z,9.73
2022-11-12T11:11:38.219Z,5.57
2022-11-12T11:14:29.957Z,6.10
2022-11-12T11:17:19.180Z,4.90
2022-11-12T11:20:13.614Z,5.53
2022-11-12T11:23:20.031Z,5.75
2022-11-12T11:26:50.618Z,5.63
2022-11-12T11:29:38.894Z,5.93
2022-11-12T11:32:42.692Z,7.97
2022-11-12T11:35:48.694Z,7.70
2022-11-12T11:38:40.790Z,5.78
2022-11-12T11:42:08.676Z,6.60
2022-11-12T11:45:17.421Z,6.07
2022-11-12T11:48:27.566Z,8.25
2022-11-12T11:51:48.224Z,7.28
2022-11-12T11:54:48.807Z,6.07
2022-11-12T11:57:59.124Z,6.65
2022-11-12T12:00:50.782Z,10.25
2022-11-12T12:03:43.311Z,8.52
2022-11-12T12:06:32.191Z,7.82
2022-11-12T12:09:30.430Z,5.10
2022-11-12T12:12:54.807Z,6.78
2022-11-12T12:16:08.356Z,6.05
2022-11-12T12:19:07.434Z,6.40
2022-11-12T12:21:55.742Z,10.15
2022-11-12T12:24:50.172Z,7.25
2022-11-12T12:27:43.720Z,5.88
2022-11-12T12:30:31.571Z,6.20
2022-11-12T12:33:32.509Z,6.60
2022-11-12T12:36:41.056Z,7.13
2022-11-12T12:39:55.182Z,5.18
2022-11-12T12:42:56.702Z,8.55
2022-11-12T12:45:44.438Z,8.30
2022-11-12T12:48:38.182Z,7.78
2022-11-12T12:51:24.646Z,7.88
2022-11-12T12:54:34.800Z,7.97
2022-11-12T12:57:38.745Z,10.55
2022-11-12T13:00:51.766Z,8.23
2022-11-12T13:03:44.467Z,7.75
2022-11-12T13:06:56.583Z,7.63
2022-11-12T13:09:41.902Z,7.90
2022-11-12T13:13:06.508Z,8.82
2022-11-12T13:15:54.387Z,6.00
2022-11-12T13:18:40.076Z,5.28
2022-11-12T13:21:25.822Z,8.82
2022-11-12T13:24:14.286Z,6.85
2022-11-12T13:27:00.394Z,5.90
2022-11-12T13:29:50.241Z,7.68
2022-11-12T13:32:49.566Z,6.80
2022-11-12T13:35:39.789Z,9.23
2022-11-12T13:38:27.305Z,6.68
2022-11-12T13:41:39.973Z,8.88
2022-11-12T13:44:26.970Z,6.27
2022-11-12T13:47:20.348Z,6.13
2022-11-12T13:50:10.100Z,8.93
2022-11-12T13:52:55.683Z,6.85
2022-11-12T13:55:49.403Z,9.55
2022-11-12T13:58:36.676Z,8.50
2022-11-12T14:01:24.521Z,8.40
2022-11-12T14:04:18.965Z,8.55
2022-11-12T14:07:35.868Z,7.75
2022-11-12T14:10:46.913Z,7.95
2022-11-12T14:14:03.881Z,9.95
2022-11-12T14:16:55.316Z,10.70
2022-11-12T14:20:19.548Z,9.85
2022-11-12T14:23:14.080Z,8.07
2022-11-12T14:25:59.726Z,8.07
2022-11-12T14:28:45.165Z,6.95
2022-11-12T14:31:32.661Z,9.13
2022-11-12T14:34:21.570Z,7.57
2022-11-12T14:37:29.579Z,6.40
2022-11-12T14:40:19.307Z,7.68
2022-11-12T14:43:06.019Z,8.05
2022-11-12T14:45:56.942Z,14.63
2022-11-12T14:48:53.384Z,8.70
2022-11-12T14:51:48.899Z,10.52
2022-11-12T14:54:40.648Z,12.23
2022-11-12T14:57:28.678Z,7.50
2022-11-12T15:00:45.005Z,7.32
2022-11-12T15:03:33.769Z,8.38
2022-11-12T15:06:31.678Z,8.23
2022-11-12T15:09:40.883Z,6.90
2022-11-12T15:12:31.514Z,8.27
2022-11-12T15:15:24.668Z,10.30
2022-11-12T15:18:19.067Z,7.75
2022-11-12T15:21:26.003Z,11.95
2022-11-12T15:24:12.770Z,13.57
2022-11-12T15:27:01.020Z,13.73
2022-11-12T15:29:46.580Z,10.15
2022-11-12T15:32:34.057Z,11.10
2022-11-12T15:35:21.743Z,11.35
2022-11-12T15:38:32.238Z,12.63
2022-11-12T15:41:24.948Z,10.20
2022-11-12T15:44:12.152Z,13.48
2022-11-12T15:46:58.921Z,11.02
2022-11-12T15:49:52.682Z,12.98
2022-11-12T15:52:38.002Z,10.90
2022-11-12T15:55:25.870Z,15.18
2022-11-12T15:58:31.888Z,11.90
2022-11-12T16:01:18.179Z,12.40
2022-11-12T16:04:06.963Z,14.43
2022-11-12T16:06:53.422Z,18.15
2022-11-12T16:09:40.223Z,14.13
2022-11-12T16:12:25.758Z,15.77
2022-11-12T16:15:19.429Z,16.05
2022-11-12T16:18:05.232Z,18.75
2022-11-12T16:20:51.961Z,20.58
2022-11-12T16:23:38.561Z,20.42
2022-11-12T16:26:28.544Z,27.67
2022-11-12T16:29:14.183Z,23.48
2022-11-12T16:32:01.160Z,23.80
2022-11-12T16:34:47.873Z,19.35
2022-11-12T16:37:33.890Z,19.55
2022-11-12T16:40:25.057Z,21.80
2022-11-12T16:43:11.828Z,20.75
2022-11-12T16:45:58.925Z,19.42
2022-11-12T16:48:44.671Z,21.88
2022-11-12T16:51:30.338Z,22.48
2022-11-12T16:54:16.969Z,20.88
2022-11-12T16:57:03.071Z,34.35
2022-11-12T16:59:49.812Z,23.20
2022-11-12T17:02:42.169Z,23.42
2022-11-12T17:05:29.812Z,27.20
2022-11-12T17:08:17.325Z,23.90
2022-11-12T17:11:07.423Z,20.83
2022-11-12T17:13:58.031Z,18.65
2022-11-12T17:16:46.412Z,28.33
2022-11-12T17:19:33.021Z,20.80
2022-11-12T17:22:20.194Z,23.95
2022-11-12T17:25:06.883Z,21.58
2022-11-12T17:27:53.529Z,24.52
2022-11-12T17:30:39.247Z,22.42
2022-11-12T17:33:24.477Z,25.67
2022-11-12T17:36:12.630Z,26.52
2022-11-12T17:39:00.429Z,24.50
2022-11-12T17:41:46.761Z,25.95
2022-11-12T17:44:32.219Z,24.45
2022-11-12T17:47:20.169Z,23.88
2022-11-12T17:50:05.792Z,26.77
2022-11-12T17:52:51.325Z,25.92
2022-11-12T17:55:36.916Z,27.73
2022-11-12T17:58:22.925Z,38.58
2022-11-12T18:01:09.944Z,46.67
2022-11-12T18:03:56.929Z,56.33
2022-11-12T18:06:42.262Z,69.88
2022-11-12T18:09:29.135Z,91.38
2022-11-12T18:12:15.533Z,137.52
2022-11-12T18:15:02.308Z,215.63
2022-11-12T18:17:48.327Z,160.98
2022-11-12T18:20:34.631Z,110.03
2022-11-12T18:23:21.012Z,115.95
2022-11-12T18:26:07.174Z,94.60
2022-11-12T18:28:56.522Z,67.38
2022-11-12T18:31:43.559Z,52.40
2022-11-12T18:34:29.211Z,52.42
2022-11-12T18:37:14.930Z,43.60
2022-11-12T18:40:01.924Z,36.50
2022-11-12T18:42:48.570Z,45.42
2022-11-12T18:45:35.066Z,38.67
2022-11-12T18:48:20.785Z,44.13
2022-11-12T18:51:14.781Z,43.38
2022-11-12T18:54:00.458Z,36.72
2022-11-12T18:56:48.863Z,34.53
2022-11-12T18:59:35.072Z,76.18
2022-11-12T19:02:21.286Z,181.95
2022-11-12T19:05:08.714Z,320.75
2022-11-12T19:07:55.201Z,263.20
2022-11-12T19:10:40.818Z,113.95
2022-11-12T19:13:27.923Z,80.47
2022-11-12T19:16:17.271Z,59.10
2022-11-12T19:19:03.726Z,56.42
2022-11-12T19:21:49.368Z,55.13
2022-11-12T19:24:35.105Z,57.38
2022-11-12T19:27:20.611Z,51.13
2022-11-12T19:30:06.926Z,51.78
2022-11-12T19:32:53.689Z,56.22
2022-11-12T19:35:41.007Z,60.65
2022-11-12T19:38:28.019Z,54.90
2022-11-12T19:41:19.801Z,50.92
2022-11-12T19:44:06.447Z,49.63
2022-11-12T19:46:55.253Z,45.40
2022-11-12T19:49:42.278Z,56.50
2022-11-12T19:52:28.705Z,49.13
2022-11-12T19:55:15.154Z,44.15
2022-11-12T19:58:02.674Z,44.75
2022-11-12T20:00:48.041Z,53.88
2022-11-12T20:03:34.008Z,46.20
2022-11-12T20:06:23.888Z,47.35
2022-11-12T20:09:10.160Z,46.63
2022-11-12T20:11:55.429Z,44.13
2022-11-12T20:14:42.257Z,43.13
2022-11-12T20:17:35.433Z,42.67
2022-11-12T20:20:21.107Z,41.50
2022-11-12T20:23:07.632Z,44.17
2022-11-12T20:25:53.707Z,45.53
2022-11-12T20:28:41.801Z,39.92
2022-11-12T20:31:29.201Z,39.00
2022-11-12T20:34:16.733Z,40.33
2022-11-12T20:37:04.623Z,47.15
2022-11-12T20:39:49.977Z,45.63
2022-11-12T20:42:36.910Z,43.60
2022-11-12T20:45:22.417Z,54.08
2022-11-12T20:48:09.096Z,46.47
2022-11-12T20:51:27.381Z,36.08
2022-11-12T20:54:13.250Z,36.47
2022-11-12T20:57:01.166Z,33.28
2022-11-12T20:59:50.223Z,37.75
2022-11-12T21:02:37.176Z,39.28
2022-11-12T21:05:26.005Z,36.65
2022-11-12T21:08:13.428Z,37.55
2022-11-12T21:11:01.691Z,36.70
2022-11-12T21:13:48.570Z,37.30
2022-11-12T21:16:34.206Z,37.88
2022-11-12T21:19:20.010Z,35.15
2022-11-12T21:22:05.301Z,42.60
2022-11-12T21:24:51.895Z,38.05
2022-11-12T21:27:38.008Z,34.92
2022-11-12T21:30:23.621Z,34.97
2022-11-12T21:33:11.664Z,31.63
2022-11-12T21:35:59.509Z,38.63
2022-11-12T21:38:46.910Z,41.33
2022-11-12T21:41:32.345Z,39.00
2022-11-12T21:44:19.344Z,39.53
2022-11-12T21:47:04.895Z,40.35
2022-11-12T21:49:50.816Z,40.97
2022-11-12T21:52:36.495Z,40.72
2022-11-12T21:55:23.011Z,36.47
2022-11-12T21:58:09.417Z,37.97
2022-11-12T22:01:06.706Z,46.30
2022-11-12T22:03:54.903Z,40.53
2022-11-12T22:06:41.308Z,36.35
2022-11-12T22:09:28.071Z,39.40
2022-11-12T22:12:13.533Z,34.50
2022-11-12T22:14:59.404Z,38.72
2022-11-12T22:17:45.956Z,40.53
2022-11-12T22:20:35.179Z,36.30
2022-11-12T22:23:22.952Z,34.63
2022-11-12T22:26:11.932Z,45.47
2022-11-12T22:28:58.966Z,38.10
2022-11-12T22:31:46.595Z,40.83
2022-11-12T22:34:33.245Z,38.20
2022-11-12T22:37:18.911Z,34.65
2022-11-12T22:40:09.150Z,43.13
2022-11-12T22:42:57.923Z,34.47
2022-11-12T22:45:49.827Z,37.20
2022-11-12T22:48:35.999Z,38.70
2022-11-12T22:51:23.946Z,32.80
2022-11-12T22:54:20.698Z,37.53
2022-11-12T22:57:06.471Z,34.20
2022-11-12T22:59:53.147Z,34.83
2022-11-12T23:02:43.399Z,30.52
2022-11-12T23:05:32.734Z,32.38
2022-11-12T23:08:20.889Z,35.72
2022-11-12T23:11:09.804Z,36.40
2022-11-12T23:13:56.920Z,38.33
2022-11-12T23:16:42.390Z,36.83
2022-11-12T23:19:28.218Z,31.60
2022-11-12T23:22:13.942Z,33.63
2022-11-12T23:24:59.518Z,31.77
2022-11-12T23:27:46.026Z,33.17
2022-11-12T23:30:32.755Z,32.35
2022-11-12T23:33:18.274Z,36.10
2022-11-12T23:36:08.342Z,30.73
2022-11-12T23:38:55.807Z,35.17
2022-11-12T23:41:47.025Z,34.85
2022-11-12T23:44:33.316Z,32.20
2022-11-12T23:47:20.030Z,37.42
2022-11-12T23:50:09.653Z,37.05
2022-11-12T23:52:56.033Z,32.42
2022-11-12T23:55:42.768Z,33.78
2022-11-12T23:58:29.397Z,32.17
